createdAt,value
2017-12-24T00:00:20.055Z,17.70
2017-12-24T00:02:48.135Z,17.87
2017-12-24T00:05:16.415Z,17.12
2017-12-24T00:07:44.676Z,17.65
2017-12-24T00:10:12.775Z,21.12
2017-12-24T00:12:41.637Z,29.00
2017-12-24T00:15:09.707Z,18.85
2017-12-24T00:17:37.802Z,18.70
2017-12-24T00:20:06.200Z,19.23
2017-12-24T00:22:35.379Z,22.33
2017-12-24T00:25:03.860Z,20.35
2017-12-24T00:27:32.300Z,22.83
2017-12-24T00:30:00.920Z,19.25
2017-12-24T00:32:30.103Z,21.42
2017-12-24T00:34:58.480Z,22.90
2017-12-24T00:37:27.606Z,21.52
2017-12-24T00:39:56.579Z,20.45
2017-12-24T00:42:24.840Z,22.98
2017-12-24T00:44:53.328Z,22.40
2017-12-24T00:47:21.694Z,19.77
2017-12-24T00:49:49.873Z,23.12
2017-12-24T00:52:18.250Z,24.55
2017-12-24T00:54:46.370Z,22.52
2017-12-24T00:57:14.597Z,20.73
2017-12-24T00:59:43.047Z,21.95
2017-12-24T01:02:11.302Z,24.00
2017-12-24T01:04:39.293Z,21.48
2017-12-24T01:07:07.387Z,20.88
2017-12-24T01:09:35.354Z,22.80
2017-12-24T01:12:03.518Z,20.75
2017-12-24T01:14:31.788Z,20.42
2017-12-24T01:17:00.093Z,17.95
2017-12-24T01:19:28.949Z,20.25
2017-12-24T01:21:57.470Z,20.02
2017-12-24T01:24:25.850Z,19.02
2017-12-24T01:26:55.149Z,16.70
2017-12-24T01:29:24.333Z,16.15
2017-12-24T01:31:53.074Z,16.65
2017-12-24T01:34:21.332Z,17.15
2017-12-24T01:36:49.573Z,13.73
2017-12-24T01:39:17.632Z,13.38
2017-12-24T01:41:45.812Z,36.00
2017-12-24T01:44:14.093Z,18.60
2017-12-24T01:46:42.412Z,12.70
2017-12-24T01:49:10.993Z,12.68
2017-12-24T01:51:39.658Z,13.35
2017-12-24T01:54:08.712Z,13.95
2017-12-24T01:56:37.454Z,13.05
2017-12-24T01:59:06.112Z,13.95
2017-12-24T02:01:35.632Z,16.55
2017-12-24T02:04:03.893Z,13.55
2017-12-24T02:06:33.035Z,16.67
2017-12-24T02:09:01.253Z,16.75
2017-12-24T02:11:29.532Z,15.40
2017-12-24T02:13:57.793Z,14.10
2017-12-24T02:16:25.953Z,15.18
2017-12-24T02:18:54.036Z,15.10
2017-12-24T02:21:22.433Z,18.33
2017-12-24T02:23:51.413Z,14.85
2017-12-24T02:26:20.372Z,13.90
2017-12-24T02:28:48.872Z,16.08
2017-12-24T02:31:17.053Z,15.82
2017-12-24T02:33:45.333Z,15.18
2017-12-24T02:36:13.693Z,12.82
2017-12-24T02:38:41.732Z,14.55
2017-12-24T02:41:09.853Z,14.30
2017-12-24T02:43:38.832Z,13.57
2017-12-24T02:46:07.112Z,14.35
2017-12-24T02:48:35.293Z,13.43
2017-12-24T02:51:03.353Z,14.90
2017-12-24T02:53:31.532Z,13.52
2017-12-24T02:55:59.614Z,13.48
2017-12-24T02:58:28.573Z,12.65
2017-12-24T03:00:56.555Z,12.43
2017-12-24T03:03:24.873Z,14.13
2017-12-24T03:05:54.152Z,13.73
2017-12-24T03:08:23.013Z,12.43
2017-12-24T03:10:51.232Z,14.20
2017-12-24T03:13:20.503Z,13.00
2017-12-24T03:15:48.972Z,16.33
2017-12-24T03:18:17.372Z,13.80
2017-12-24T03:20:46.452Z,16.75
2017-12-24T03:23:14.832Z,15.85
2017-12-24T03:25:42.933Z,14.05
2017-12-24T03:28:12.192Z,13.23
2017-12-24T03:30:40.453Z,13.18
2017-12-24T03:33:09.052Z,11.10
2017-12-24T03:35:37.333Z,12.07
2017-12-24T03:38:05.512Z,12.32
2017-12-24T03:40:33.572Z,12.70
2017-12-24T03:43:01.673Z,12.80
2017-12-24T03:45:30.632Z,12.90
2017-12-24T03:47:58.712Z,13.13
2017-12-24T03:50:26.773Z,13.15
2017-12-24T03:52:55.012Z,13.65
2017-12-24T03:55:23.093Z,11.50
2017-12-24T03:57:51.312Z,13.57
2017-12-24T04:00:20.392Z,12.07
2017-12-24T04:02:48.473Z,11.35
2017-12-24T04:05:16.632Z,13.55
2017-12-24T04:07:44.912Z,9.50
2017-12-24T04:10:12.973Z,11.88
2017-12-24T04:12:41.253Z,12.27
2017-12-24T04:15:09.532Z,11.88
2017-12-24T04:17:37.673Z,11.82
2017-12-24T04:20:05.893Z,9.68
2017-12-24T04:22:35.093Z,14.05
2017-12-24T04:25:04.273Z,11.93
2017-12-24T04:27:32.873Z,16.70
2017-12-24T04:30:02.153Z,10.65
2017-12-24T04:32:30.413Z,9.45
2017-12-24T04:34:58.893Z,8.88
2017-12-24T04:37:27.393Z,9.25
2017-12-24T04:39:55.633Z,13.70
2017-12-24T04:42:23.676Z,10.15
2017-12-24T04:44:52.035Z,8.57
2017-12-24T04:47:21.033Z,12.27
2017-12-24T04:49:50.098Z,12.65
2017-12-24T04:52:18.473Z,8.63
2017-12-24T04:54:46.753Z,9.65
2017-12-24T04:57:14.835Z,9.57
2017-12-24T04:59:43.872Z,11.70
2017-12-24T05:02:12.173Z,137.82
2017-12-24T05:04:40.573Z,37.90
2017-12-24T05:07:08.913Z,10.52
2017-12-24T05:09:36.973Z,11.98
2017-12-24T05:12:05.292Z,10.80
2017-12-24T05:14:33.672Z,11.63
2017-12-24T05:17:03.233Z,11.15
2017-12-24T05:19:31.553Z,11.68
2017-12-24T05:21:59.732Z,12.05
2017-12-24T05:24:27.893Z,14.15
2017-12-24T05:26:56.072Z,10.52
2017-12-24T05:29:24.233Z,11.50
2017-12-24T05:31:52.612Z,13.70
2017-12-24T05:34:20.893Z,12.37
2017-12-24T05:36:48.972Z,10.93
2017-12-24T05:39:17.333Z,13.80
2017-12-24T05:41:45.513Z,12.10
2017-12-24T05:44:14.013Z,13.50
2017-12-24T05:46:42.792Z,14.35
2017-12-24T05:49:11.373Z,12.70
2017-12-24T05:51:39.733Z,13.90
2017-12-24T05:54:08.032Z,11.98
2017-12-24T05:56:36.193Z,14.93
2017-12-24T05:59:04.473Z,11.85
2017-12-24T06:01:32.635Z,15.52
2017-12-24T06:04:01.016Z,20.00
2017-12-24T06:06:29.076Z,14.27
2017-12-24T06:08:57.655Z,15.70
2017-12-24T06:11:26.156Z,15.13
2017-12-24T06:13:54.803Z,13.82
2017-12-24T06:16:23.316Z,15.25
2017-12-24T06:18:51.716Z,13.15
2017-12-24T06:21:20.816Z,15.52
2017-12-24T06:23:49.976Z,13.27
2017-12-24T06:26:18.256Z,14.00
2017-12-24T06:28:46.537Z,14.32
2017-12-24T06:31:14.955Z,14.38
2017-12-24T06:33:43.178Z,17.33
2017-12-24T06:36:11.555Z,16.12
2017-12-24T06:38:39.796Z,14.18
2017-12-24T06:41:07.955Z,15.63
2017-12-24T06:43:36.116Z,15.20
2017-12-24T06:46:05.116Z,14.90
2017-12-24T06:48:33.356Z,14.80
2017-12-24T06:51:03.176Z,17.37
2017-12-24T06:53:31.337Z,18.27
2017-12-24T06:56:01.056Z,14.32
2017-12-24T06:58:29.235Z,19.17
2017-12-24T07:00:58.096Z,16.37
2017-12-24T07:03:26.076Z,18.95
2017-12-24T07:05:54.138Z,18.30
2017-12-24T07:08:22.326Z,18.67
2017-12-24T07:10:50.500Z,18.67
2017-12-24T07:13:18.766Z,19.08
2017-12-24T07:15:46.926Z,21.20
2017-12-24T07:18:15.246Z,14.27
2017-12-24T07:20:44.205Z,19.23
2017-12-24T07:23:12.286Z,16.45
2017-12-24T07:25:40.585Z,21.08
2017-12-24T07:28:09.813Z,17.02
2017-12-24T07:30:38.146Z,17.37
2017-12-24T07:33:07.626Z,17.90
2017-12-24T07:35:36.606Z,18.27
2017-12-24T07:38:05.046Z,19.42
2017-12-24T07:40:33.186Z,17.17
2017-12-24T07:43:01.466Z,20.50
2017-12-24T07:45:30.527Z,18.40
2017-12-24T07:47:59.246Z,21.33
2017-12-24T07:50:28.206Z,19.30
2017-12-24T07:52:56.486Z,19.02
2017-12-24T07:55:25.086Z,18.67
2017-12-24T07:57:53.186Z,18.92
2017-12-24T08:00:22.346Z,18.02
2017-12-24T08:02:50.606Z,20.83
2017-12-24T08:05:18.826Z,18.85
2017-12-24T08:07:48.006Z,19.60
2017-12-24T08:10:16.365Z,20.77
2017-12-24T08:12:44.545Z,16.75
2017-12-24T08:15:12.626Z,18.40
2017-12-24T08:17:41.006Z,18.95
2017-12-24T08:20:09.166Z,19.05
2017-12-24T08:22:37.946Z,20.08
2017-12-24T08:25:06.226Z,20.12
2017-12-24T08:27:34.306Z,18.27
2017-12-24T08:30:02.446Z,17.48
2017-12-24T08:32:30.746Z,22.35
2017-12-24T08:34:58.906Z,17.95
2017-12-24T08:37:27.066Z,18.35
2017-12-24T08:39:55.365Z,18.85
2017-12-24T08:42:23.966Z,18.70
2017-12-24T08:44:52.546Z,16.20
2017-12-24T08:47:20.846Z,14.25
2017-12-24T08:49:49.206Z,16.42
2017-12-24T08:52:18.608Z,11.85
2017-12-24T08:54:47.786Z,14.77
2017-12-24T08:57:16.167Z,12.93
2017-12-24T08:59:44.226Z,14.85
2017-12-24T09:02:12.506Z,14.80
2017-12-24T09:04:40.846Z,12.77
2017-12-24T09:07:09.287Z,15.98
2017-12-24T09:09:38.466Z,14.05
2017-12-24T09:12:06.866Z,12.75
2017-12-24T09:14:36.026Z,12.40
2017-12-24T09:17:04.206Z,13.50
2017-12-24T09:19:32.279Z,12.75
2017-12-24T09:22:00.349Z,14.65
2017-12-24T09:24:28.496Z,10.70
2017-12-24T09:26:56.802Z,10.88
2017-12-24T09:29:24.818Z,13.38
2017-12-24T09:31:53.158Z,17.12
2017-12-24T09:34:21.318Z,18.95
2017-12-24T09:36:49.398Z,15.27
2017-12-24T09:39:17.878Z,21.10
2017-12-24T09:41:46.018Z,20.12
2017-12-24T09:44:14.218Z,19.00
2017-12-24T09:46:42.398Z,19.75
2017-12-24T09:49:10.438Z,20.77
2017-12-24T09:51:38.726Z,20.62
2017-12-24T09:54:06.880Z,20.15
2017-12-24T09:56:35.278Z,20.65
2017-12-24T09:59:03.358Z,20.98
2017-12-24T10:01:31.638Z,21.50
2017-12-24T10:03:59.998Z,19.02
2017-12-24T10:06:28.078Z,20.37
2017-12-24T10:08:56.119Z,16.08
2017-12-24T10:11:24.078Z,19.00
2017-12-24T10:13:52.578Z,19.15
2017-12-24T10:16:21.204Z,20.52
2017-12-24T10:18:50.598Z,19.50
2017-12-24T10:21:19.778Z,19.00
2017-12-24T10:23:48.358Z,18.42
2017-12-24T10:26:16.618Z,16.75
2017-12-24T10:28:45.218Z,22.45
2017-12-24T10:31:13.798Z,17.65
2017-12-24T10:33:42.018Z,19.45
2017-12-24T10:36:10.279Z,19.42
2017-12-24T10:38:39.358Z,20.15
2017-12-24T10:41:07.502Z,20.62
2017-12-24T10:43:35.758Z,19.70
2017-12-24T10:46:03.958Z,17.75
2017-12-24T10:48:32.242Z,15.80
2017-12-24T10:51:00.578Z,20.20
2017-12-24T10:53:28.898Z,15.75
2017-12-24T10:55:57.038Z,17.10
2017-12-24T10:58:25.777Z,19.65
2017-12-24T11:00:54.917Z,18.17
2017-12-24T11:03:23.018Z,17.90
2017-12-24T11:05:51.457Z,16.83
2017-12-24T11:08:19.618Z,18.65
2017-12-24T11:10:48.062Z,19.83
2017-12-24T11:13:16.441Z,17.65
2017-12-24T11:15:45.518Z,14.85
2017-12-24T11:18:13.697Z,20.35
2017-12-24T11:20:41.757Z,27.52
2017-12-24T11:23:09.937Z,18.80
2017-12-24T11:25:38.558Z,21.08
2017-12-24T11:28:07.818Z,19.35
2017-12-24T11:30:36.258Z,17.52
2017-12-24T11:33:04.676Z,15.20
2017-12-24T11:35:32.846Z,14.82
2017-12-24T11:38:01.251Z,16.58
2017-12-24T11:40:30.111Z,15.20
2017-12-24T11:42:58.740Z,18.05
2017-12-24T11:45:28.219Z,19.17
2017-12-24T11:47:56.460Z,16.95
2017-12-24T11:50:25.060Z,15.50
2017-12-24T11:52:53.480Z,17.62
2017-12-24T11:55:22.020Z,14.80
2017-12-24T11:57:50.380Z,14.13
2017-12-24T12:00:19.099Z,27.35
2017-12-24T12:02:47.362Z,20.48
2017-12-24T12:05:15.600Z,16.90
2017-12-24T12:07:43.800Z,14.48
2017-12-24T12:10:12.001Z,13.48
2017-12-24T12:12:41.060Z,19.05
2017-12-24T12:15:09.561Z,17.58
2017-12-24T12:17:37.740Z,18.45
2017-12-24T12:20:06.120Z,17.15
2017-12-24T12:22:34.240Z,16.95
2017-12-24T12:25:02.240Z,18.17
2017-12-24T12:27:30.400Z,15.35
2017-12-24T12:29:58.800Z,22.80
2017-12-24T12:32:27.487Z,20.30
2017-12-24T12:34:55.667Z,15.02
2017-12-24T12:37:23.740Z,17.52
2017-12-24T12:39:51.920Z,18.73
2017-12-24T12:42:20.799Z,18.23
2017-12-24T12:44:48.959Z,18.23
2017-12-24T12:47:17.140Z,15.30
2017-12-24T12:49:45.320Z,16.92
2017-12-24T12:52:13.807Z,18.20
2017-12-24T12:54:42.179Z,17.05
2017-12-24T12:57:10.680Z,18.35
2017-12-24T12:59:39.940Z,16.55
2017-12-24T13:02:08.181Z,19.50
2017-12-24T13:04:36.300Z,20.15
2017-12-24T13:07:04.579Z,20.23
2017-12-24T13:09:32.800Z,19.85
2017-12-24T13:12:01.340Z,17.15
2017-12-24T13:14:29.500Z,16.80
2017-12-24T13:16:57.921Z,24.55
2017-12-24T13:19:26.140Z,18.00
2017-12-24T13:21:54.340Z,13.73
2017-12-24T13:24:23.520Z,15.38
2017-12-24T13:26:51.880Z,20.35
2017-12-24T13:29:20.162Z,14.40
2017-12-24T13:31:48.581Z,17.00
2017-12-24T13:34:17.547Z,21.35
2017-12-24T13:36:45.820Z,15.77
2017-12-24T13:39:14.100Z,17.85
2017-12-24T13:41:42.479Z,19.12
2017-12-24T13:44:10.960Z,14.60
2017-12-24T13:46:39.020Z,16.95
2017-12-24T13:49:07.400Z,17.90
2017-12-24T13:51:35.920Z,15.52
2017-12-24T13:54:03.919Z,16.25
2017-12-24T13:56:32.140Z,16.30
2017-12-24T13:59:00.400Z,15.55
2017-12-24T14:01:28.481Z,16.80
2017-12-24T14:03:56.780Z,21.08
2017-12-24T14:06:25.900Z,17.73
2017-12-24T14:08:54.223Z,16.42
2017-12-24T14:11:23.520Z,16.12
2017-12-24T14:13:52.123Z,19.75
2017-12-24T14:16:21.520Z,15.15
2017-12-24T14:18:50.700Z,13.38
2017-12-24T14:21:19.003Z,16.95
2017-12-24T14:23:48.180Z,16.45
2017-12-24T14:26:17.460Z,14.45
2017-12-24T14:28:45.860Z,21.02
2017-12-24T14:31:14.339Z,16.65
2017-12-24T14:33:42.400Z,20.30
2017-12-24T14:36:10.720Z,21.55
2017-12-24T14:38:39.879Z,16.98
2017-12-24T14:41:09.721Z,17.00
2017-12-24T14:43:38.140Z,15.80
2017-12-24T14:46:06.540Z,14.35
2017-12-24T14:48:34.702Z,20.55
2017-12-24T14:51:02.999Z,15.00
2017-12-24T14:53:31.281Z,16.05
2017-12-24T14:56:00.371Z,21.00
2017-12-24T14:58:28.600Z,14.00
2017-12-24T15:00:56.700Z,16.30
2017-12-24T15:03:25.180Z,15.93
2017-12-24T15:05:53.380Z,14.95
2017-12-24T15:08:22.459Z,18.20
2017-12-24T15:10:50.520Z,19.12
2017-12-24T15:13:18.799Z,14.65
2017-12-24T15:15:47.282Z,16.95
2017-12-24T15:18:15.880Z,16.00
2017-12-24T15:20:45.100Z,15.85
2017-12-24T15:23:13.540Z,15.70
2017-12-24T15:25:42.700Z,15.25
2017-12-24T15:28:11.440Z,17.73
2017-12-24T15:30:40.621Z,15.82
2017-12-24T15:33:08.880Z,15.93
2017-12-24T15:35:37.480Z,15.98
2017-12-24T15:38:05.980Z,16.70
2017-12-24T15:40:35.061Z,19.85
2017-12-24T15:43:03.441Z,18.27
2017-12-24T15:45:32.420Z,14.38
2017-12-24T15:48:00.640Z,20.52
2017-12-24T15:50:29.380Z,18.45
2017-12-24T15:52:57.541Z,15.15
2017-12-24T15:55:25.840Z,14.73
2017-12-24T15:57:54.820Z,16.27
2017-12-24T16:00:23.299Z,17.67
2017-12-24T16:02:51.561Z,18.08
2017-12-24T16:05:19.941Z,18.20
2017-12-24T16:07:48.241Z,20.83
2017-12-24T16:10:16.320Z,17.33
2017-12-24T16:12:45.619Z,16.95
2017-12-24T16:15:14.757Z,16.17
2017-12-24T16:17:42.838Z,17.12
2017-12-24T16:20:11.424Z,20.80
2017-12-24T16:22:39.618Z,18.05
2017-12-24T16:25:08.703Z,20.55
2017-12-24T16:27:37.100Z,19.95
2017-12-24T16:30:05.804Z,21.05
2017-12-24T16:32:35.064Z,20.83
2017-12-24T16:35:03.316Z,21.30
2017-12-24T16:37:31.636Z,17.05
2017-12-24T16:40:00.216Z,20.40
2017-12-24T16:42:28.475Z,19.20
2017-12-24T16:44:56.878Z,16.50
2017-12-24T16:47:25.136Z,17.30
2017-12-24T16:49:53.436Z,18.42
2017-12-24T16:52:22.315Z,18.73
2017-12-24T16:54:50.467Z,19.23
2017-12-24T16:57:18.575Z,18.30
2017-12-24T16:59:47.478Z,19.00
2017-12-24T17:02:15.816Z,19.40
2017-12-24T17:04:44.335Z,21.35
2017-12-24T17:07:12.575Z,17.50
2017-12-24T17:09:41.074Z,20.33
2017-12-24T17:12:10.255Z,17.73
2017-12-24T17:14:38.615Z,22.25
2017-12-24T17:17:07.095Z,19.60
2017-12-24T17:19:35.715Z,23.15
2017-12-24T17:22:05.195Z,25.10
2017-12-24T17:24:33.475Z,22.55
2017-12-24T17:27:02.135Z,23.25
2017-12-24T17:29:30.315Z,25.02
2017-12-24T17:31:58.815Z,23.75
2017-12-24T17:34:27.177Z,24.27
2017-12-24T17:36:55.555Z,23.80
2017-12-24T17:39:23.834Z,22.80
2017-12-24T17:41:52.355Z,23.77
2017-12-24T17:44:21.398Z,20.42
2017-12-24T17:46:49.415Z,24.30
2017-12-24T17:49:18.414Z,23.48
2017-12-24T17:51:46.735Z,26.80
2017-12-24T17:54:14.842Z,23.62
2017-12-24T17:56:43.915Z,22.15
2017-12-24T17:59:12.195Z,22.45
2017-12-24T18:01:40.674Z,22.77
2017-12-24T18:04:08.895Z,21.42
2017-12-24T18:06:37.135Z,25.58
2017-12-24T18:09:05.435Z,22.92
2017-12-24T18:11:33.775Z,25.48
2017-12-24T18:14:01.955Z,26.00
2017-12-24T18:16:30.676Z,26.02
2017-12-24T18:18:59.374Z,31.58
2017-12-24T18:21:27.935Z,26.65
2017-12-24T18:23:57.115Z,28.65
2017-12-24T18:26:25.395Z,42.45
2017-12-24T18:28:54.575Z,34.95
2017-12-24T18:31:23.275Z,40.65
2017-12-24T18:33:52.875Z,30.65
2017-12-24T18:36:21.255Z,36.58
2017-12-24T18:38:50.335Z,43.13
2017-12-24T18:41:18.638Z,42.58
2017-12-24T18:43:47.695Z,35.50
2017-12-24T18:46:16.035Z,35.03
2017-12-24T18:48:44.355Z,34.22
2017-12-24T18:51:12.635Z,27.67
2017-12-24T18:53:40.675Z,32.25
2017-12-24T18:56:08.984Z,30.55
2017-12-24T18:58:37.215Z,26.33
2017-12-24T19:01:05.135Z,23.73
2017-12-24T19:03:33.495Z,27.70
2017-12-24T19:06:01.656Z,30.20
2017-12-24T19:08:29.955Z,26.08
2017-12-24T19:10:58.195Z,25.08
2017-12-24T19:13:26.595Z,24.80
2017-12-24T19:15:54.795Z,24.12
2017-12-24T19:18:24.074Z,24.15
2017-12-24T19:20:52.375Z,22.20
2017-12-24T19:23:21.363Z,22.60
2017-12-24T19:25:50.376Z,23.98
2017-12-24T19:28:18.895Z,24.17
2017-12-24T19:30:47.089Z,24.15
2017-12-24T19:33:15.530Z,22.62
2017-12-24T19:35:43.530Z,27.02
2017-12-24T19:38:11.810Z,23.83
2017-12-24T19:40:40.071Z,34.22
2017-12-24T19:43:08.409Z,27.23
2017-12-24T19:45:36.710Z,44.30
2017-12-24T19:48:05.230Z,28.48
2017-12-24T19:50:35.150Z,28.27
2017-12-24T19:53:04.230Z,28.35
2017-12-24T19:55:32.392Z,29.45
2017-12-24T19:58:00.530Z,28.60
2017-12-24T20:00:28.850Z,27.77
2017-12-24T20:02:57.012Z,32.38
2017-12-24T20:05:25.414Z,26.55
2017-12-24T20:07:54.019Z,30.00
2017-12-24T20:10:22.470Z,21.85
2017-12-24T20:12:50.877Z,20.12
2017-12-24T20:15:19.930Z,23.15
2017-12-24T20:17:48.430Z,21.10
2017-12-24T20:20:16.689Z,23.42
2017-12-24T20:22:45.070Z,27.37
2017-12-24T20:25:13.550Z,27.42
2017-12-24T20:27:41.710Z,28.12
2017-12-24T20:30:10.070Z,31.20
2017-12-24T20:32:38.370Z,31.52
2017-12-24T20:35:06.650Z,32.17
2017-12-24T20:37:34.930Z,38.25
2017-12-24T20:40:03.390Z,35.38
2017-12-24T20:42:31.889Z,40.10
2017-12-24T20:45:00.170Z,35.13
2017-12-24T20:47:28.329Z,36.50
2017-12-24T20:49:56.810Z,34.25
2017-12-24T20:52:25.049Z,33.80
2017-12-24T20:54:53.351Z,33.67
2017-12-24T20:57:21.510Z,32.03
2017-12-24T20:59:49.609Z,28.87
2017-12-24T21:02:18.052Z,31.10
2017-12-24T21:04:46.152Z,33.92
2017-12-24T21:07:14.330Z,25.25
2017-12-24T21:09:42.411Z,27.55
2017-12-24T21:12:10.789Z,24.30
2017-12-24T21:14:39.130Z,29.45
2017-12-24T21:17:07.570Z,31.20
2017-12-24T21:19:36.751Z,30.77
2017-12-24T21:22:05.830Z,34.53
2017-12-24T21:24:34.311Z,34.67
2017-12-24T21:27:02.770Z,36.50
2017-12-24T21:29:31.250Z,33.60
2017-12-24T21:31:59.951Z,35.80
2017-12-24T21:34:28.329Z,37.17
2017-12-24T21:36:56.830Z,34.45
2017-12-24T21:39:26.209Z,40.28
2017-12-24T21:41:54.471Z,35.60
2017-12-24T21:44:23.190Z,30.83
2017-12-24T21:46:52.392Z,35.78
2017-12-24T21:49:21.650Z,34.95
2017-12-24T21:51:50.030Z,34.33
2017-12-24T21:54:18.781Z,33.67
2017-12-24T21:56:47.238Z,38.28
2017-12-24T21:59:16.192Z,31.45
2017-12-24T22:01:44.592Z,43.17
2017-12-24T22:04:13.590Z,30.37
2017-12-24T22:06:42.431Z,30.88
2017-12-24T22:09:10.532Z,37.47
2017-12-24T22:11:39.710Z,35.03
2017-12-24T22:14:07.851Z,29.33
2017-12-24T22:16:36.291Z,32.45
2017-12-24T22:19:04.451Z,34.15
2017-12-24T22:21:32.731Z,32.25
2017-12-24T22:24:00.997Z,33.50
2017-12-24T22:26:29.271Z,30.77
2017-12-24T22:28:57.659Z,31.83
2017-12-24T22:31:25.910Z,34.38
2017-12-24T22:33:54.097Z,32.55
2017-12-24T22:36:22.270Z,32.70
2017-12-24T22:38:50.450Z,41.75
2017-12-24T22:41:18.978Z,36.58
2017-12-24T22:43:47.430Z,36.88
2017-12-24T22:46:16.650Z,35.00
2017-12-24T22:48:45.150Z,40.38
2017-12-24T22:51:13.670Z,36.88
2017-12-24T22:53:41.830Z,36.58
2017-12-24T22:56:10.510Z,35.97
2017-12-24T22:58:39.070Z,39.88
2017-12-24T23:01:07.391Z,41.40
2017-12-24T23:03:35.610Z,47.10
2017-12-24T23:06:03.958Z,40.30
2017-12-24T23:08:33.230Z,44.65
2017-12-24T23:11:01.510Z,41.50
2017-12-24T23:13:29.891Z,36.67
2017-12-24T23:15:58.025Z,51.53
2017-12-24T23:18:26.544Z,45.08
2017-12-24T23:20:55.051Z,48.15
2017-12-24T23:23:24.324Z,53.10
2017-12-24T23:25:52.765Z,45.53
2017-12-24T23:28:21.286Z,52.88
2017-12-24T23:30:49.785Z,49.92
2017-12-24T23:33:18.824Z,47.72
2017-12-24T23:35:47.445Z,45.05
2017-12-24T23:38:15.804Z,53.58
2017-12-24T23:40:43.979Z,49.40
2017-12-24T23:43:12.126Z,44.90
2017-12-24T23:45:40.888Z,47.90
2017-12-24T23:48:09.126Z,38.88
2017-12-24T23:50:37.506Z,39.75
2017-12-24T23:53:05.786Z,39.42
2017-12-24T23:55:34.026Z,36.53
2017-12-24T23:58:02.386Z,42.67
